sensor_id;sensor_type;location;lat;lon;timestamp;temperature;humidity
74178;DHT22;62540;48.456;-4.456;2023-07-29T00:01:36;20.01;78.55
74178;DHT22;62540;48.456;-4.456;2023-07-29T00:04:02;19.93;78.82
74178;DHT22;62540;48.456;-4.456;2023-07-29T00:06:27;19.98;78.59
74178;DHT22;62540;48.456;-4.456;2023-07-29T00:08:53;19.98;78.56
74178;DHT22;62540;48.456;-4.456;2023-07-29T00:11:18;19.97;78.61
74178;DHT22;62540;48.456;-4.456;2023-07-29T00:13:44;19.98;78.70
74178;DHT22;62540;48.456;-4.456;2023-07-29T00:16:09;19.97;78.78
74178;DHT22;62540;48.456;-4.456;2023-07-29T00:18:35;19.95;78.63
74178;DHT22;62540;48.456;-4.456;2023-07-29T00:21:00;19.95;78.79
74178;DHT22;62540;48.456;-4.456;2023-07-29T00:23:25;20.00;78.73
74178;DHT22;62540;48.456;-4.456;2023-07-29T00:25:51;19.98;78.63
74178;DHT22;62540;48.456;-4.456;2023-07-29T00:28:16;20.05;78.52
74178;DHT22;62540;48.456;-4.456;2023-07-29T00:30:41;19.98;78.85
74178;DHT22;62540;48.456;-4.456;2023-07-29T00:33:07;19.98;78.91
74178;DHT22;62540;48.456;-4.456;2023-07-29T00:35:33;19.97;78.90
74178;DHT22;62540;48.456;-4.456;2023-07-29T00:37:58;19.87;79.27
74178;DHT22;62540;48.456;-4.456;2023-07-29T00:40:23;19.84;79.12
74178;DHT22;62540;48.456;-4.456;2023-07-29T00:42:49;19.84;79.32
74178;DHT22;62540;48.456;-4.456;2023-07-29T00:45:18;19.88;78.96
74178;DHT22;62540;48.456;-4.456;2023-07-29T00:47:43;19.90;79.62
74178;DHT22;62540;48.456;-4.456;2023-07-29T00:50:11;19.91;79.04
74178;DHT22;62540;48.456;-4.456;2023-07-29T00:52:37;19.93;79.00
74178;DHT22;62540;48.456;-4.456;2023-07-29T00:55:03;19.94;79.34
74178;DHT22;62540;48.456;-4.456;2023-07-29T00:57:29;19.88;79.51
74178;DHT22;62540;48.456;-4.456;2023-07-29T00:59:55;19.93;79.41
74178;DHT22;62540;48.456;-4.456;2023-07-29T01:02:21;19.97;79.32
74178;DHT22;62540;48.456;-4.456;2023-07-29T01:04:52;20.00;79.03
74178;DHT22;62540;48.456;-4.456;2023-07-29T01:10:32;19.84;80.34
74178;DHT22;62540;48.456;-4.456;2023-07-29T01:13:03;19.71;80.99
74178;DHT22;62540;48.456;-4.456;2023-07-29T01:18:18;19.74;80.18
74178;DHT22;62540;48.456;-4.456;2023-07-29T01:20:46;19.74;80.42
74178;DHT22;62540;48.456;-4.456;2023-07-29T01:23:12;19.84;80.01
74178;DHT22;62540;48.456;-4.456;2023-07-29T01:25:37;19.88;79.88
74178;DHT22;62540;48.456;-4.456;2023-07-29T01:28:03;19.97;79.58
74178;DHT22;62540;48.456;-4.456;2023-07-29T01:30:33;19.97;79.27
74178;DHT22;62540;48.456;-4.456;2023-07-29T01:35:48;19.98;79.09
74178;DHT22;62540;48.456;-4.456;2023-07-29T01:38:18;20.01;78.92
74178;DHT22;62540;48.456;-4.456;2023-07-29T01:40:45;20.01;78.82
74178;DHT22;62540;48.456;-4.456;2023-07-29T01:43:11;20.07;78.76
74178;DHT22;62540;48.456;-4.456;2023-07-29T01:45:37;20.07;78.63
74178;DHT22;62540;48.456;-4.456;2023-07-29T01:48:07;20.14;78.43
74178;DHT22;62540;48.456;-4.456;2023-07-29T01:50:33;20.18;78.31
74178;DHT22;62540;48.456;-4.456;2023-07-29T01:52:59;20.21;78.18
74178;DHT22;62540;48.456;-4.456;2023-07-29T01:55:24;20.20;78.00
74178;DHT22;62540;48.456;-4.456;2023-07-29T01:57:50;20.20;78.01
74178;DHT22;62540;48.456;-4.456;2023-07-29T02:00:16;20.17;77.99
74178;DHT22;62540;48.456;-4.456;2023-07-29T02:02:42;20.17;77.98
74178;DHT22;62540;48.456;-4.456;2023-07-29T02:05:07;20.17;77.86
74178;DHT22;62540;48.456;-4.456;2023-07-29T02:07:32;20.12;77.80
74178;DHT22;62540;48.456;-4.456;2023-07-29T02:09:58;20.11;77.87
74178;DHT22;62540;48.456;-4.456;2023-07-29T02:12:23;20.10;77.87
74178;DHT22;62540;48.456;-4.456;2023-07-29T02:14:50;20.11;77.86
74178;DHT22;62540;48.456;-4.456;2023-07-29T02:17:15;20.12;77.72
74178;DHT22;62540;48.456;-4.456;2023-07-29T02:19:41;20.12;77.63
74178;DHT22;62540;48.456;-4.456;2023-07-29T02:22:06;20.15;77.63
74178;DHT22;62540;48.456;-4.456;2023-07-29T02:24:32;20.14;77.47
74178;DHT22;62540;48.456;-4.456;2023-07-29T02:26:57;20.11;77.45
74178;DHT22;62540;48.456;-4.456;2023-07-29T02:29:22;20.12;77.43
74178;DHT22;62540;48.456;-4.456;2023-07-29T02:31:48;20.08;77.46
74178;DHT22;62540;48.456;-4.456;2023-07-29T02:34:13;20.10;77.42
74178;DHT22;62540;48.456;-4.456;2023-07-29T02:36:39;20.10;77.38
74178;DHT22;62540;48.456;-4.456;2023-07-29T02:39:04;20.05;77.37
74178;DHT22;62540;48.456;-4.456;2023-07-29T02:41:31;20.05;77.32
74178;DHT22;62540;48.456;-4.456;2023-07-29T02:43:56;20.00;77.31
74178;DHT22;62540;48.456;-4.456;2023-07-29T02:46:21;19.94;77.52
74178;DHT22;62540;48.456;-4.456;2023-07-29T02:48:47;19.94;77.52
74178;DHT22;62540;48.456;-4.456;2023-07-29T02:51:12;19.94;77.42
74178;DHT22;62540;48.456;-4.456;2023-07-29T02:53:38;19.93;77.41
74178;DHT22;62540;48.456;-4.456;2023-07-29T02:56:04;19.91;77.46
74178;DHT22;62540;48.456;-4.456;2023-07-29T02:58:29;19.85;77.49
74178;DHT22;62540;48.456;-4.456;2023-07-29T03:01:05;19.85;77.49
74178;DHT22;62540;48.456;-4.456;2023-07-29T03:03:31;19.85;77.47
74178;DHT22;62540;48.456;-4.456;2023-07-29T03:06:02;19.81;77.47
74178;DHT22;62540;48.456;-4.456;2023-07-29T03:08:28;19.78;77.45
74178;DHT22;62540;48.456;-4.456;2023-07-29T03:10:54;19.78;77.45
74178;DHT22;62540;48.456;-4.456;2023-07-29T03:13:19;19.75;77.49
74178;DHT22;62540;48.456;-4.456;2023-07-29T03:15:45;19.78;77.39
74178;DHT22;62540;48.456;-4.456;2023-07-29T03:18:10;19.75;77.34
74178;DHT22;62540;48.456;-4.456;2023-07-29T03:20:36;19.71;77.36
74178;DHT22;62540;48.456;-4.456;2023-07-29T03:23:01;19.69;77.38
74178;DHT22;62540;48.456;-4.456;2023-07-29T03:25:28;19.70;77.41
74178;DHT22;62540;48.456;-4.456;2023-07-29T03:27:54;19.64;77.40
74178;DHT22;62540;48.456;-4.456;2023-07-29T03:30:20;19.66;77.47
74178;DHT22;62540;48.456;-4.456;2023-07-29T03:32:47;19.63;77.53
74178;DHT22;62540;48.456;-4.456;2023-07-29T03:35:13;19.59;77.57
74178;DHT22;62540;48.456;-4.456;2023-07-29T03:37:39;19.62;77.53
74178;DHT22;62540;48.456;-4.456;2023-07-29T03:40:05;19.62;77.52
74178;DHT22;62540;48.456;-4.456;2023-07-29T03:42:31;19.59;77.66
74178;DHT22;62540;48.456;-4.456;2023-07-29T03:44:56;19.59;77.58
74178;DHT22;62540;48.456;-4.456;2023-07-29T03:47:22;19.59;77.49
74178;DHT22;62540;48.456;-4.456;2023-07-29T03:49:47;19.60;77.49
74178;DHT22;62540;48.456;-4.456;2023-07-29T03:52:12;19.57;77.40
74178;DHT22;62540;48.456;-4.456;2023-07-29T03:54:38;19.56;77.49
74178;DHT22;62540;48.456;-4.456;2023-07-29T03:57:03;19.53;77.43
74178;DHT22;62540;48.456;-4.456;2023-07-29T03:59:29;19.52;77.35
74178;DHT22;62540;48.456;-4.456;2023-07-29T04:01:54;19.52;77.33
74178;DHT22;62540;48.456;-4.456;2023-07-29T04:04:20;19.43;77.42
74178;DHT22;62540;48.456;-4.456;2023-07-29T04:06:45;19.42;77.43
74178;DHT22;62540;48.456;-4.456;2023-07-29T04:09:11;19.37;77.37
74178;DHT22;62540;48.456;-4.456;2023-07-29T04:11:36;19.39;77.35
74178;DHT22;62540;48.456;-4.456;2023-07-29T04:14:02;19.35;77.31
74178;DHT22;62540;48.456;-4.456;2023-07-29T04:16:27;19.36;77.29
74178;DHT22;62540;48.456;-4.456;2023-07-29T04:18:54;19.33;77.32
74178;DHT22;62540;48.456;-4.456;2023-07-29T04:21:19;19.35;77.27
74178;DHT22;62540;48.456;-4.456;2023-07-29T04:23:44;19.33;77.25
74178;DHT22;62540;48.456;-4.456;2023-07-29T04:26:10;19.33;77.19
74178;DHT22;62540;48.456;-4.456;2023-07-29T04:28:35;19.27;77.23
74178;DHT22;62540;48.456;-4.456;2023-07-29T04:31:00;19.29;77.19
74178;DHT22;62540;48.456;-4.456;2023-07-29T04:33:26;19.26;77.21
74178;DHT22;62540;48.456;-4.456;2023-07-29T04:35:51;19.22;77.20
74178;DHT22;62540;48.456;-4.456;2023-07-29T04:38:16;19.20;77.19
74178;DHT22;62540;48.456;-4.456;2023-07-29T04:40:42;19.15;77.32
74178;DHT22;62540;48.456;-4.456;2023-07-29T04:43:07;19.18;77.28
74178;DHT22;62540;48.456;-4.456;2023-07-29T04:45:32;19.16;77.29
74178;DHT22;62540;48.456;-4.456;2023-07-29T04:47:58;19.18;77.28
74178;DHT22;62540;48.456;-4.456;2023-07-29T04:50:24;19.16;77.35
74178;DHT22;62540;48.456;-4.456;2023-07-29T04:52:49;19.19;77.33
74178;DHT22;62540;48.456;-4.456;2023-07-29T04:55:15;19.14;77.38
74178;DHT22;62540;48.456;-4.456;2023-07-29T04:57:40;19.14;77.40
74178;DHT22;62540;48.456;-4.456;2023-07-29T05:00:06;19.15;77.43
74178;DHT22;62540;48.456;-4.456;2023-07-29T05:02:31;19.16;77.54
74178;DHT22;62540;48.456;-4.456;2023-07-29T05:04:57;19.12;77.63
74178;DHT22;62540;48.456;-4.456;2023-07-29T05:07:22;19.08;77.69
74178;DHT22;62540;48.456;-4.456;2023-07-29T05:09:48;19.08;77.70
74178;DHT22;62540;48.456;-4.456;2023-07-29T05:12:13;19.12;77.66
74178;DHT22;62540;48.456;-4.456;2023-07-29T05:14:39;19.11;77.64
74178;DHT22;62540;48.456;-4.456;2023-07-29T05:17:04;19.14;77.67
74178;DHT22;62540;48.456;-4.456;2023-07-29T05:19:30;19.09;77.72
74178;DHT22;62540;48.456;-4.456;2023-07-29T05:21:56;19.06;77.71
74178;DHT22;62540;48.456;-4.456;2023-07-29T05:24:22;19.08;77.74
74178;DHT22;62540;48.456;-4.456;2023-07-29T05:26:48;19.08;77.83
74178;DHT22;62540;48.456;-4.456;2023-07-29T05:29:14;19.08;77.84
74178;DHT22;62540;48.456;-4.456;2023-07-29T05:31:39;19.06;77.74
74178;DHT22;62540;48.456;-4.456;2023-07-29T05:34:04;19.08;77.81
74178;DHT22;62540;48.456;-4.456;2023-07-29T05:36:30;19.11;77.80
74178;DHT22;62540;48.456;-4.456;2023-07-29T05:38:55;19.14;77.85
74178;DHT22;62540;48.456;-4.456;2023-07-29T05:41:21;19.15;77.96
74178;DHT22;62540;48.456;-4.456;2023-07-29T05:43:46;19.18;78.00
74178;DHT22;62540;48.456;-4.456;2023-07-29T05:46:12;19.19;78.09
74178;DHT22;62540;48.456;-4.456;2023-07-29T05:48:38;19.29;78.20
74178;DHT22;62540;48.456;-4.456;2023-07-29T05:51:03;19.50;78.45
74178;DHT22;62540;48.456;-4.456;2023-07-29T05:53:30;19.85;78.51
74178;DHT22;62540;48.456;-4.456;2023-07-29T05:55:56;20.24;78.28
74178;DHT22;62540;48.456;-4.456;2023-07-29T05:58:21;20.51;77.96
74178;DHT22;62540;48.456;-4.456;2023-07-29T06:00:47;20.70;77.13
74178;DHT22;62540;48.456;-4.456;2023-07-29T06:03:12;20.94;76.88
74178;DHT22;62540;48.456;-4.456;2023-07-29T06:05:38;21.10;76.64
74178;DHT22;62540;48.456;-4.456;2023-07-29T06:08:04;21.18;76.40
74178;DHT22;62540;48.456;-4.456;2023-07-29T06:10:29;21.23;75.45
74178;DHT22;62540;48.456;-4.456;2023-07-29T06:12:54;21.18;75.62
74178;DHT22;62540;48.456;-4.456;2023-07-29T06:15:20;21.11;75.62
74178;DHT22;62540;48.456;-4.456;2023-07-29T06:17:47;21.07;75.18
74178;DHT22;62540;48.456;-4.456;2023-07-29T06:20:13;20.91;75.06
74178;DHT22;62540;48.456;-4.456;2023-07-29T06:22:38;20.91;75.73
74178;DHT22;62540;48.456;-4.456;2023-07-29T06:25:04;20.99;75.70
74178;DHT22;62540;48.456;-4.456;2023-07-29T06:27:29;21.00;75.69
74178;DHT22;62540;48.456;-4.456;2023-07-29T06:29:54;20.99;75.36
74178;DHT22;62540;48.456;-4.456;2023-07-29T06:32:20;20.93;75.39
74178;DHT22;62540;48.456;-4.456;2023-07-29T06:34:45;20.84;75.65
74178;DHT22;62540;48.456;-4.456;2023-07-29T06:37:10;20.93;75.62
74178;DHT22;62540;48.456;-4.456;2023-07-29T06:39:36;21.07;75.73
74178;DHT22;62540;48.456;-4.456;2023-07-29T06:42:01;21.23;75.48
74178;DHT22;62540;48.456;-4.456;2023-07-29T06:44:27;21.31;75.02
74178;DHT22;62540;48.456;-4.456;2023-07-29T06:46:52;21.38;74.81
74178;DHT22;62540;48.456;-4.456;2023-07-29T06:49:18;21.45;74.47
74178;DHT22;62540;48.456;-4.456;2023-07-29T06:51:43;21.74;75.13
74178;DHT22;62540;48.456;-4.456;2023-07-29T06:54:08;21.81;73.12
74178;DHT22;62540;48.456;-4.456;2023-07-29T06:56:34;22.00;74.42
74178;DHT22;62540;48.456;-4.456;2023-07-29T06:58:59;22.16;73.89
74178;DHT22;62540;48.456;-4.456;2023-07-29T07:01:25;22.18;73.67
74178;DHT22;62540;48.456;-4.456;2023-07-29T07:03:50;22.34;73.99
74178;DHT22;62540;48.456;-4.456;2023-07-29T07:06:20;22.58;73.91
74178;DHT22;62540;48.456;-4.456;2023-07-29T07:08:45;22.68;73.08
74178;DHT22;62540;48.456;-4.456;2023-07-29T07:11:11;22.69;72.52
74178;DHT22;62540;48.456;-4.456;2023-07-29T07:13:36;22.69;72.67
74178;DHT22;62540;48.456;-4.456;2023-07-29T07:16:01;22.63;72.97
74178;DHT22;62540;48.456;-4.456;2023-07-29T07:18:27;22.51;72.70
74178;DHT22;62540;48.456;-4.456;2023-07-29T07:20:52;22.53;72.78
74178;DHT22;62540;48.456;-4.456;2023-07-29T07:23:18;22.45;72.60
74178;DHT22;62540;48.456;-4.456;2023-07-29T07:25:43;22.36;72.93
74178;DHT22;62540;48.456;-4.456;2023-07-29T07:28:09;22.26;72.81
74178;DHT22;62540;48.456;-4.456;2023-07-29T07:30:35;22.24;73.16
74178;DHT22;62540;48.456;-4.456;2023-07-29T07:33:01;22.12;72.43
74178;DHT22;62540;48.456;-4.456;2023-07-29T07:35:26;22.09;73.19
74178;DHT22;62540;48.456;-4.456;2023-07-29T07:37:52;22.07;73.26
74178;DHT22;62540;48.456;-4.456;2023-07-29T07:40:17;22.00;73.18
74178;DHT22;62540;48.456;-4.456;2023-07-29T07:42:43;21.97;73.38
74178;DHT22;62540;48.456;-4.456;2023-07-29T07:45:08;21.85;73.30
74178;DHT22;62540;48.456;-4.456;2023-07-29T07:47:34;21.83;73.32
74178;DHT22;62540;48.456;-4.456;2023-07-29T07:49:59;21.69;73.44
74178;DHT22;62540;48.456;-4.456;2023-07-29T07:52:24;21.71;73.75
74178;DHT22;62540;48.456;-4.456;2023-07-29T07:54:54;21.66;73.84
74178;DHT22;62540;48.456;-4.456;2023-07-29T07:57:21;21.63;73.99
74178;DHT22;62540;48.456;-4.456;2023-07-29T07:59:46;21.61;74.06
74178;DHT22;62540;48.456;-4.456;2023-07-29T08:02:12;21.55;74.18
74178;DHT22;62540;48.456;-4.456;2023-07-29T08:04:37;21.45;72.95
74178;DHT22;62540;48.456;-4.456;2023-07-29T08:07:03;21.34;73.46
74178;DHT22;62540;48.456;-4.456;2023-07-29T08:09:28;21.28;73.34
74178;DHT22;62540;48.456;-4.456;2023-07-29T08:11:54;21.26;73.24
74178;DHT22;62540;48.456;-4.456;2023-07-29T08:14:19;21.26;73.40
74178;DHT22;62540;48.456;-4.456;2023-07-29T08:16:44;21.32;72.85
74178;DHT22;62540;48.456;-4.456;2023-07-29T08:19:10;21.21;72.36
74178;DHT22;62540;48.456;-4.456;2023-07-29T08:21:35;21.10;73.08
74178;DHT22;62540;48.456;-4.456;2023-07-29T08:24:01;21.12;73.02
74178;DHT22;62540;48.456;-4.456;2023-07-29T08:26:26;21.12;72.67
74178;DHT22;62540;48.456;-4.456;2023-07-29T08:28:52;21.27;72.83
74178;DHT22;62540;48.456;-4.456;2023-07-29T08:31:17;21.41;72.84
74178;DHT22;62540;48.456;-4.456;2023-07-29T08:33:43;21.48;72.71
74178;DHT22;62540;48.456;-4.456;2023-07-29T08:36:08;21.57;72.23
74178;DHT22;62540;48.456;-4.456;2023-07-29T08:38:33;21.66;72.37
74178;DHT22;62540;48.456;-4.456;2023-07-29T08:41:29;21.76;71.93
74178;DHT22;62540;48.456;-4.456;2023-07-29T08:44:03;21.85;72.07
74178;DHT22;62540;48.456;-4.456;2023-07-29T08:46:32;21.89;71.25
74178;DHT22;62540;48.456;-4.456;2023-07-29T08:48:59;21.92;71.59
74178;DHT22;62540;48.456;-4.456;2023-07-29T08:51:25;21.92;70.68
74178;DHT22;62540;48.456;-4.456;2023-07-29T08:53:51;21.92;70.82
74178;DHT22;62540;48.456;-4.456;2023-07-29T08:56:16;21.83;70.35
74178;DHT22;62540;48.456;-4.456;2023-07-29T08:58:42;21.75;70.63
74178;DHT22;62540;48.456;-4.456;2023-07-29T09:01:08;21.68;71.07
74178;DHT22;62540;48.456;-4.456;2023-07-29T09:03:34;21.66;71.10
74178;DHT22;62540;48.456;-4.456;2023-07-29T09:05:59;21.69;71.40
74178;DHT22;62540;48.456;-4.456;2023-07-29T09:08:27;21.86;71.48
74178;DHT22;62540;48.456;-4.456;2023-07-29T09:10:54;22.02;71.51
74178;DHT22;62540;48.456;-4.456;2023-07-29T09:13:21;22.06;70.90
74178;DHT22;62540;48.456;-4.456;2023-07-29T09:15:46;22.07;70.71
74178;DHT22;62540;48.456;-4.456;2023-07-29T09:18:15;22.16;70.85
74178;DHT22;62540;48.456;-4.456;2023-07-29T09:20:41;22.23;70.99
74178;DHT22;62540;48.456;-4.456;2023-07-29T09:23:08;22.29;71.06
74178;DHT22;62540;48.456;-4.456;2023-07-29T09:25:35;22.40;70.88
74178;DHT22;62540;48.456;-4.456;2023-07-29T09:28:02;22.53;70.97
74178;DHT22;62540;48.456;-4.456;2023-07-29T09:30:32;22.63;70.95
74178;DHT22;62540;48.456;-4.456;2023-07-29T09:32:58;22.79;70.73
74178;DHT22;62540;48.456;-4.456;2023-07-29T09:35:26;22.74;69.19
74178;DHT22;62540;48.456;-4.456;2023-07-29T09:37:53;22.76;69.24
74178;DHT22;62540;48.456;-4.456;2023-07-29T09:40:18;22.69;69.10
74178;DHT22;62540;48.456;-4.456;2023-07-29T09:42:51;22.71;68.69
74178;DHT22;62540;48.456;-4.456;2023-07-29T09:45:24;22.79;68.58
74178;DHT22;62540;48.456;-4.456;2023-07-29T09:47:51;22.75;68.47
74178;DHT22;62540;48.456;-4.456;2023-07-29T09:50:17;22.74;68.79
74178;DHT22;62540;48.456;-4.456;2023-07-29T09:52:42;22.85;68.47
74178;DHT22;62540;48.456;-4.456;2023-07-29T09:55:11;22.84;68.30
74178;DHT22;62540;48.456;-4.456;2023-07-29T09:57:37;22.96;68.34
74178;DHT22;62540;48.456;-4.456;2023-07-29T10:00:04;23.03;68.22
74178;DHT22;62540;48.456;-4.456;2023-07-29T10:02:45;23.09;67.72
74178;DHT22;62540;48.456;-4.456;2023-07-29T10:05:10;23.01;67.64
74178;DHT22;62540;48.456;-4.456;2023-07-29T10:07:39;22.99;67.88
74178;DHT22;62540;48.456;-4.456;2023-07-29T10:10:06;23.03;68.06
74178;DHT22;62540;48.456;-4.456;2023-07-29T10:12:33;22.94;66.25
74178;DHT22;62540;48.456;-4.456;2023-07-29T10:15:01;22.91;67.73
74178;DHT22;62540;48.456;-4.456;2023-07-29T10:17:27;22.99;67.82
74178;DHT22;62540;48.456;-4.456;2023-07-29T10:19:53;23.15;67.83
74178;DHT22;62540;48.456;-4.456;2023-07-29T10:22:20;23.29;67.28
74178;DHT22;62540;48.456;-4.456;2023-07-29T10:24:48;23.40;67.28
74178;DHT22;62540;48.456;-4.456;2023-07-29T10:27:17;23.60;66.85
74178;DHT22;62540;48.456;-4.456;2023-07-29T10:29:43;23.67;66.11
74178;DHT22;62540;48.456;-4.456;2023-07-29T10:32:11;23.70;66.23
74178;DHT22;62540;48.456;-4.456;2023-07-29T10:34:37;23.77;65.96
74178;DHT22;62540;48.456;-4.456;2023-07-29T10:37:03;23.84;66.35
74178;DHT22;62540;48.456;-4.456;2023-07-29T10:39:38;24.02;65.60
74178;DHT22;62540;48.456;-4.456;2023-07-29T10:42:06;24.07;65.61
74178;DHT22;62540;48.456;-4.456;2023-07-29T10:47:12;24.07;65.49
74178;DHT22;62540;48.456;-4.456;2023-07-29T10:49:45;24.17;65.39
74178;DHT22;62540;48.456;-4.456;2023-07-29T10:52:14;24.18;65.27
74178;DHT22;62540;48.456;-4.456;2023-07-29T10:54:47;24.26;65.29
74178;DHT22;62540;48.456;-4.456;2023-07-29T10:57:14;24.29;65.15
74178;DHT22;62540;48.456;-4.456;2023-07-29T10:59:55;24.36;64.69
74178;DHT22;62540;48.456;-4.456;2023-07-29T11:02:21;24.46;65.29
74178;DHT22;62540;48.456;-4.456;2023-07-29T11:04:53;24.59;65.33
74178;DHT22;62540;48.456;-4.456;2023-07-29T11:07:19;24.65;65.27
74178;DHT22;62540;48.456;-4.456;2023-07-29T11:20:11;24.52;64.36
74178;DHT22;62540;48.456;-4.456;2023-07-29T11:22:37;24.53;64.51
74178;DHT22;62540;48.456;-4.456;2023-07-29T11:25:04;24.53;64.32
74178;DHT22;62540;48.456;-4.456;2023-07-29T11:27:30;24.52;64.58
74178;DHT22;62540;48.456;-4.456;2023-07-29T11:30:15;24.51;64.38
74178;DHT22;62540;48.456;-4.456;2023-07-29T11:32:42;24.46;64.76
74178;DHT22;62540;48.456;-4.456;2023-07-29T11:35:10;24.36;64.72
74178;DHT22;62540;48.456;-4.456;2023-07-29T11:37:37;24.32;64.86
74178;DHT22;62540;48.456;-4.456;2023-07-29T11:40:03;24.22;64.97
74178;DHT22;62540;48.456;-4.456;2023-07-29T11:42:32;23.93;64.45
74178;DHT22;62540;48.456;-4.456;2023-07-29T11:44:59;23.70;65.54
74178;DHT22;62540;48.456;-4.456;2023-07-29T11:47:24;23.63;65.33
74178;DHT22;62540;48.456;-4.456;2023-07-29T11:49:50;23.59;65.46
74178;DHT22;62540;48.456;-4.456;2023-07-29T11:52:15;23.61;65.20
74178;DHT22;62540;48.456;-4.456;2023-07-29T11:54:47;23.61;65.28
74178;DHT22;62540;48.456;-4.456;2023-07-29T11:57:13;23.61;65.21
74178;DHT22;62540;48.456;-4.456;2023-07-29T11:59:40;23.57;64.77
74178;DHT22;62540;48.456;-4.456;2023-07-29T12:02:13;23.61;65.32
74178;DHT22;62540;48.456;-4.456;2023-07-29T12:04:41;23.69;65.44
74178;DHT22;62540;48.456;-4.456;2023-07-29T12:07:07;23.81;65.33
74178;DHT22;62540;48.456;-4.456;2023-07-29T12:09:34;23.94;65.31
74178;DHT22;62540;48.456;-4.456;2023-07-29T12:12:00;24.01;64.98
74178;DHT22;62540;48.456;-4.456;2023-07-29T12:14:28;24.11;64.84
74178;DHT22;62540;48.456;-4.456;2023-07-29T12:16:53;24.19;64.35
74178;DHT22;62540;48.456;-4.456;2023-07-29T12:19:19;24.18;64.05
74178;DHT22;62540;48.456;-4.456;2023-07-29T12:21:44;24.19;63.97
74178;DHT22;62540;48.456;-4.456;2023-07-29T12:24:12;24.28;63.38
74178;DHT22;62540;48.456;-4.456;2023-07-29T12:26:39;24.26;63.65
74178;DHT22;62540;48.456;-4.456;2023-07-29T12:29:15;24.32;63.01
74178;DHT22;62540;48.456;-4.456;2023-07-29T12:31:41;24.35;63.11
74178;DHT22;62540;48.456;-4.456;2023-07-29T12:34:06;24.28;62.93
74178;DHT22;62540;48.456;-4.456;2023-07-29T12:36:49;24.39;62.52
74178;DHT22;62540;48.456;-4.456;2023-07-29T12:39:24;24.49;62.60
74178;DHT22;62540;48.456;-4.456;2023-07-29T12:41:52;24.53;62.58
74178;DHT22;62540;48.456;-4.456;2023-07-29T12:44:18;24.63;62.06
74178;DHT22;62540;48.456;-4.456;2023-07-29T12:46:43;24.49;61.95
74178;DHT22;62540;48.456;-4.456;2023-07-29T12:49:09;24.35;62.06
74178;DHT22;62540;48.456;-4.456;2023-07-29T12:51:35;24.32;61.22
74178;DHT22;62540;48.456;-4.456;2023-07-29T12:54:02;24.14;61.24
74178;DHT22;62540;48.456;-4.456;2023-07-29T12:56:28;24.10;61.86
74178;DHT22;62540;48.456;-4.456;2023-07-29T12:58:55;24.14;61.78
74178;DHT22;62540;48.456;-4.456;2023-07-29T13:01:20;24.40;62.23
74178;DHT22;62540;48.456;-4.456;2023-07-29T13:03:45;24.52;61.10
74178;DHT22;62540;48.456;-4.456;2023-07-29T13:06:11;24.68;60.29
74178;DHT22;62540;48.456;-4.456;2023-07-29T13:08:37;24.96;59.66
74178;DHT22;62540;48.456;-4.456;2023-07-29T13:11:03;25.26;59.90
74178;DHT22;62540;48.456;-4.456;2023-07-29T13:13:28;25.33;55.96
74178;DHT22;62540;48.456;-4.456;2023-07-29T13:15:54;25.44;58.12
74178;DHT22;62540;48.456;-4.456;2023-07-29T13:18:19;25.59;57.74
74178;DHT22;62540;48.456;-4.456;2023-07-29T13:20:44;25.93;58.16
74178;DHT22;62540;48.456;-4.456;2023-07-29T13:23:10;26.40;56.75
74178;DHT22;62540;48.456;-4.456;2023-07-29T13:25:35;26.62;53.37
74178;DHT22;62540;48.456;-4.456;2023-07-29T13:28:00;26.78;54.06
74178;DHT22;62540;48.456;-4.456;2023-07-29T13:30:26;26.78;51.56
74178;DHT22;62540;48.456;-4.456;2023-07-29T13:32:51;26.85;52.77
74178;DHT22;62540;48.456;-4.456;2023-07-29T13:35:17;26.91;52.68
74178;DHT22;62540;48.456;-4.456;2023-07-29T13:37:42;27.06;52.77
74178;DHT22;62540;48.456;-4.456;2023-07-29T13:40:07;27.06;51.21
74178;DHT22;62540;48.456;-4.456;2023-07-29T13:42:33;27.06;52.93
74178;DHT22;62540;48.456;-4.456;2023-07-29T13:44:58;27.18;51.65
74178;DHT22;62540;48.456;-4.456;2023-07-29T13:47:23;27.26;51.48
74178;DHT22;62540;48.456;-4.456;2023-07-29T13:49:49;27.36;51.57
74178;DHT22;62540;48.456;-4.456;2023-07-29T13:52:14;27.13;47.67
74178;DHT22;62540;48.456;-4.456;2023-07-29T13:54:40;27.15;50.36
74178;DHT22;62540;48.456;-4.456;2023-07-29T13:57:05;27.03;48.99
74178;DHT22;62540;48.456;-4.456;2023-07-29T13:59:32;26.94;50.55
74178;DHT22;62540;48.456;-4.456;2023-07-29T14:01:57;26.88;49.04
74178;DHT22;62540;48.456;-4.456;2023-07-29T14:04:23;26.94;50.77
74178;DHT22;62540;48.456;-4.456;2023-07-29T14:06:48;26.96;49.59
74178;DHT22;62540;48.456;-4.456;2023-07-29T14:09:14;26.96;50.27
74178;DHT22;62540;48.456;-4.456;2023-07-29T14:11:39;26.94;49.05
74178;DHT22;62540;48.456;-4.456;2023-07-29T14:14:04;26.80;49.21
74178;DHT22;62540;48.456;-4.456;2023-07-29T14:16:30;26.88;49.00
74178;DHT22;62540;48.456;-4.456;2023-07-29T14:18:55;26.68;49.26
74178;DHT22;62540;48.456;-4.456;2023-07-29T14:21:20;26.61;49.61
74178;DHT22;62540;48.456;-4.456;2023-07-29T14:23:46;26.41;49.99
74178;DHT22;62540;48.456;-4.456;2023-07-29T14:26:11;26.33;50.36
74178;DHT22;62540;48.456;-4.456;2023-07-29T14:28:37;26.16;50.26
74178;DHT22;62540;48.456;-4.456;2023-07-29T14:31:02;25.96;48.84
74178;DHT22;62540;48.456;-4.456;2023-07-29T14:33:28;25.92;50.68
74178;DHT22;62540;48.456;-4.456;2023-07-29T14:35:53;26.00;49.95
74178;DHT22;62540;48.456;-4.456;2023-07-29T14:38:19;25.89;49.80
74178;DHT22;62540;48.456;-4.456;2023-07-29T14:40:47;25.90;50.72
74178;DHT22;62540;48.456;-4.456;2023-07-29T14:43:12;25.86;50.18
74178;DHT22;62540;48.456;-4.456;2023-07-29T14:45:38;25.82;50.67
74178;DHT22;62540;48.456;-4.456;2023-07-29T14:48:03;25.79;50.91
74178;DHT22;62540;48.456;-4.456;2023-07-29T14:50:29;25.68;50.59
74178;DHT22;62540;48.456;-4.456;2023-07-29T14:52:54;25.45;52.05
74178;DHT22;62540;48.456;-4.456;2023-07-29T14:55:19;25.45;52.54
74178;DHT22;62540;48.456;-4.456;2023-07-29T14:57:45;25.44;52.31
74178;DHT22;62540;48.456;-4.456;2023-07-29T15:00:11;25.30;53.10
74178;DHT22;62540;48.456;-4.456;2023-07-29T15:02:37;25.27;54.11
74178;DHT22;62540;48.456;-4.456;2023-07-29T15:05:02;25.26;54.63
74178;DHT22;62540;48.456;-4.456;2023-07-29T15:07:28;25.30;55.00
74178;DHT22;62540;48.456;-4.456;2023-07-29T15:09:53;25.35;55.31
74178;DHT22;62540;48.456;-4.456;2023-07-29T15:12:18;25.47;55.34
74178;DHT22;62540;48.456;-4.456;2023-07-29T15:14:44;25.37;54.87
74178;DHT22;62540;48.456;-4.456;2023-07-29T15:17:09;25.14;53.80
74178;DHT22;62540;48.456;-4.456;2023-07-29T15:19:34;25.06;53.76
74178;DHT22;62540;48.456;-4.456;2023-07-29T15:22:00;24.93;53.80
74178;DHT22;62540;48.456;-4.456;2023-07-29T15:24:25;24.91;54.50
74178;DHT22;62540;48.456;-4.456;2023-07-29T15:26:51;24.91;54.21
74178;DHT22;62540;48.456;-4.456;2023-07-29T15:29:16;24.86;54.53
74178;DHT22;62540;48.456;-4.456;2023-07-29T15:31:41;24.98;54.55